»·PEaware :: N973DM KSBP-KLPC

N973DM :: KSBP-KLPC

FLIGHT INFORMATION

Flight Status: Arrived
Operator: Privately registered:
United States
More flights under this callsign
Pilot: Anonymous 1328 (1328)
Aircraft: CIRRUS SR-20
(SR20)
More flights by this aircraft type
Origin: KSBP San Luis Co Regl
United States
Destination: KLPC Lompoc
United States
More flights between these airports :: More routes between these airports
Route: +GVO
File this flight plan on PilotEdge
Remarks: IFR FLIGHT RNAV 25, EITHER VECTOR OR PT AT LIVAQ
Altitude:
(Current/Filed)
5,000ft
Speed:
(Current/Filed)
145kts
Departed: 25-Oct-13 07:47 PM
Arrived: 25-Oct-13 08:23 PM
Distance/Time
Traveled:
35nm/0:36
Distance/Time
To Go:
Arrived

Flight Plot

Page will automatically refresh every two minutes.


Map Options




Map Legend


Flown Route
Filed Route
Departure Airport
Arrival Airport
Navaid (VOR, NDB)
Fix

Horizontal Profiles

Position Reports

Time Latitude Longitude Heading Altitude Ground
Speed
25-Oct-13 19:25 35.237500 -120.651748 188 149ft 0kts
25-Oct-13 19:26 35.237500 -120.651748 188 149ft 0kts
25-Oct-13 19:28 35.237652 -120.638541 188 195ft 0kts
25-Oct-13 19:29 35.237652 -120.638541 188 195ft 0kts
25-Oct-13 19:30 35.237652 -120.638541 189 195ft 0kts
25-Oct-13 19:31 35.237652 -120.638541 189 195ft 0kts
25-Oct-13 19:32 35.237652 -120.638541 189 195ft 0kts
25-Oct-13 19:33 35.237652 -120.638541 189 195ft 0kts
25-Oct-13 19:34 35.237652 -120.638541 189 195ft 0kts
25-Oct-13 19:35 35.237652 -120.638541 189 195ft 0kts
25-Oct-13 19:36 35.237652 -120.638541 189 195ft 0kts
25-Oct-13 19:37 35.237652 -120.638541 189 195ft 0kts
25-Oct-13 19:38 35.237652 -120.638541 189 195ft 0kts
25-Oct-13 19:39 35.237652 -120.638541 189 195ft 0kts
25-Oct-13 19:40 35.238656 -120.641260 307 186ft 27kts
25-Oct-13 19:41 35.242421 -120.647833 301 159ft 6kts
25-Oct-13 19:42 35.242661 -120.648341 282 157ft 10kts
25-Oct-13 19:43 35.242627 -120.648715 246 156ft 0kts
25-Oct-13 19:44 35.242627 -120.648715 246 156ft 0kts
25-Oct-13 19:45 35.242627 -120.648715 246 156ft 0kts
25-Oct-13 19:46 35.238406 -120.642619 126 182ft 93kts
25-Oct-13 19:47 35.219094 -120.613858 148 1012ft 113kts
25-Oct-13 19:48 35.188904 -120.616236 193 1948ft 107kts
25-Oct-13 19:48 35.164437 -120.621324 193 2770ft 108kts
25-Oct-13 19:50 35.132942 -120.611334 108 3784ft 114kts
25-Oct-13 19:51 35.122134 -120.574467 109 4561ft 116kts
25-Oct-13 19:51 35.099624 -120.555809 150 4979ft 134kts
25-Oct-13 19:52 35.064669 -120.528044 147 4979ft 159kts
25-Oct-13 19:53 35.027687 -120.497580 146 4979ft 161kts
25-Oct-13 19:55 34.984527 -120.462002 146 4980ft 160kts
25-Oct-13 19:55 34.953650 -120.436578 146 4980ft 160kts
25-Oct-13 19:57 34.910139 -120.402210 147 4981ft 160kts
25-Oct-13 19:57 34.879440 -120.378527 147 4989ft 155kts
25-Oct-13 19:58 34.843105 -120.350487 147 4992ft 155kts
25-Oct-13 19:59 34.806545 -120.322300 147 4975ft 157kts
25-Oct-13 20:00 34.770659 -120.294669 148 4764ft 147kts
25-Oct-13 20:01 34.736441 -120.268347 149 4573ft 144kts
25-Oct-13 20:02 34.701864 -120.241810 149 4168ft 155kts
25-Oct-13 20:03 34.664465 -120.213069 147 3275ft 147kts
25-Oct-13 20:04 34.646143 -120.170068 116 3291ft 144kts
25-Oct-13 20:05 34.632963 -120.124951 74 3284ft 145kts
25-Oct-13 20:06 34.660577 -120.128734 274 3280ft 134kts
25-Oct-13 20:07 34.661203 -120.174207 270 3292ft 135kts
25-Oct-13 20:08 34.661543 -120.220151 254 3278ft 134kts
25-Oct-13 20:09 34.636838 -120.211453 96 3297ft 142kts
25-Oct-13 20:10 34.633679 -120.167404 95 3287ft 120kts
25-Oct-13 20:11 34.650341 -120.148221 314 3284ft 101kts
25-Oct-13 20:12 34.658406 -120.182699 277 3298ft 120kts
25-Oct-13 20:13 34.660006 -120.224691 268 3295ft 128kts
25-Oct-13 20:14 34.666220 -120.267395 275 3281ft 114kts
25-Oct-13 20:15 34.667224 -120.298297 265 3245ft 78kts
25-Oct-13 20:16 34.668818 -120.325087 273 3220ft 89kts
25-Oct-13 20:17 34.667778 -120.353765 259 2747ft 102kts
25-Oct-13 20:18 34.664720 -120.389659 264 1930ft 119kts
25-Oct-13 20:19 34.664844 -120.432051 276 821ft 136kts
25-Oct-13 20:20 34.665589 -120.466040 270 82ft 71kts
25-Oct-13 20:21 34.665304 -120.474191 265 79ft 0kts
25-Oct-13 20:22 34.665304 -120.474191 265 79ft 0kts
25-Oct-13 20:23 34.665304 -120.474191 265 79ft 0kts
25-Oct-13 20:24 34.665304 -120.474191 265 79ft 0kts

Navigation Log

Ident Type
Flight plan parsing failed, navigation log unavailable